Time;durP1;ratioP1;P1;durP2;ratioP2;P2;SDS_P1;SDS_P2;PMS_P1;PMS_P2;Temp;Humidity;BMP_temperature;BMP_pressure;BME280_temperature;BME280_humidity;BME280_pressure;Samples;Min_cycle;Max_cycle;Signal;HPM_P1;HPM_P2
2021/09/03 00:09:51;;;;;;;9.78;3.83;;;;;;;10.16;100.00;100948.49;715899;1199;115317;-79
2021/09/03 00:24:53;;;;;;;7.10;2.67;;;;;;;10.23;100.00;100927.06;715893;1200;115267;-79
2021/09/03 00:39:55;;;;;;;13.17;4.87;;;;;;;10.20;100.00;100935.14;716226;1199;115655;-80
2021/09/03 00:54:59;;;;;;;9.88;4.25;;;;;;;9.72;100.00;100912.52;716051;1204;115597;-79
2021/09/03 01:10:03;;;;;;;8.45;4.75;;;;;;;9.59;100.00;100902.93;715851;1199;115083;-79
2021/09/03 01:25:07;;;;;;;9.43;4.70;;;;;;;9.49;100.00;100892.31;715901;1198;114649;-80
2021/09/03 01:40:11;;;;;;;7.48;4.55;;;;;;;9.48;100.00;100872.30;716164;1199;114349;-79
2021/09/03 01:55:13;;;;;;;10.70;5.03;;;;;;;9.74;100.00;100847.72;715848;1177;113737;-79
2021/09/03 02:10:15;;;;;;;9.70;4.63;;;;;;;9.73;100.00;100831.17;715987;1200;115128;-79
2021/09/03 02:25:17;;;;;;;9.00;4.65;;;;;;;9.69;100.00;100815.80;715872;1198;114040;-78
2021/09/03 02:40:19;;;;;;;10.07;4.10;;;;;;;9.91;100.00;100796.65;716219;1189;113731;-79
2021/09/03 02:55:22;;;;;;;6.35;3.83;;;;;;;10.44;100.00;100781.16;716135;1200;114596;-79
2021/09/03 03:10:25;;;;;;;7.35;4.10;;;;;;;10.54;100.00;100773.38;716468;1203;115022;-79
2021/09/03 03:25:28;;;;;;;5.93;3.93;;;;;;;10.39;100.00;100736.11;715975;1199;115251;-79
2021/09/03 03:40:30;;;;;;;8.17;4.73;;;;;;;10.32;100.00;100725.25;715840;1200;115507;-80
2021/09/03 03:55:32;;;;;;;7.93;4.43;;;;;;;10.19;100.00;100713.22;715871;1174;114120;-79
2021/09/03 04:10:35;;;;;;;8.20;4.80;;;;;;;10.20;100.00;100699.16;716026;1199;115325;-78
2021/09/03 04:25:37;;;;;;;47.00;16.63;;;;;;;10.22;100.00;100681.53;716315;1177;113861;-80
2021/09/03 04:40:39;;;;;;;9.75;5.55;;;;;;;10.53;100.00;100671.20;716000;1200;115296;-81
2021/09/03 04:55:41;;;;;;;23.80;6.00;;;;;;;11.02;100.00;100671.55;715960;1200;114233;-78
2021/09/03 05:10:43;;;;;;;15.45;5.80;;;;;;;11.59;100.00;100669.38;716126;1199;115827;-79
2021/09/03 05:25:46;;;;;;;14.23;6.30;;;;;;;12.07;100.00;100647.66;716250;1203;114895;-81
2021/09/03 05:40:49;;;;;;;9.65;5.53;;;;;;;12.62;100.00;100620.81;716403;1202;114986;-82
2021/09/03 05:55:51;;;;;;;13.60;5.75;;;;;;;13.17;100.00;100602.66;716304;1200;115595;-81
2021/09/03 06:10:54;;;;;;;7.03;3.93;;;;;;;13.90;100.00;100579.00;716294;1203;115024;-82
2021/09/03 06:25:56;;;;;;;6.95;3.68;;;;;;;14.50;100.00;100572.25;716539;1199;114555;-83
2021/09/03 06:40:59;;;;;;;6.40;4.17;;;;;;;15.24;100.00;100562.16;719221;1203;115829;-78
2021/09/03 06:56:02;;;;;;;10.03;4.70;;;;;;;16.19;100.00;100531.92;717410;1177;114856;-84
2021/09/03 07:11:04;;;;;;;12.28;5.25;;;;;;;17.09;100.00;100504.45;718041;1200;114377;-83
2021/09/03 07:26:07;;;;;;;6.10;4.10;;;;;;;18.10;100.00;100512.42;717869;1200;114066;-83
2021/09/03 07:41:09;;;;;;;7.53;3.50;;;;;;;19.04;98.32;100481.89;717447;1203;114332;-82
2021/09/03 07:56:13;;;;;;;6.47;4.53;;;;;;;19.37;98.20;100492.09;720778;1203;115409;-83
2021/09/03 08:11:15;;;;;;;8.53;4.77;;;;;;;19.42;96.58;100468.41;718436;1200;113810;-83
2021/09/03 08:26:18;;;;;;;8.73;5.63;;;;;;;20.35;96.82;100451.61;717197;1202;114017;-74
2021/09/03 08:41:23;;;;;;;11.98;6.63;;;;;;;20.42;94.14;100451.64;716085;1199;114675;-74
2021/09/03 08:56:26;;;;;;;12.37;6.30;;;;;;;20.84;93.33;100406.34;715857;1200;114524;-74
2021/09/03 09:11:30;;;;;;;13.23;5.45;;;;;;;21.58;92.80;100396.67;715982;1204;113984;-74
2021/09/03 09:26:41;;;;;;;8.15;5.45;;;;;;;22.26;89.30;100400.88;715717;1202;114525;-74
2021/09/03 09:41:45;;;;;;;10.50;6.15;;;;;;;21.88;83.78;100394.39;716691;1193;114215;-74
2021/09/03 09:56:57;;;;;;;9.60;5.87;;;;;;;21.81;82.26;100401.58;716463;1202;114012;-74
2021/09/03 10:12:01;;;;;;;11.68;6.45;;;;;;;22.19;82.45;100403.58;716248;1202;115263;-84
2021/09/03 10:27:08;;;;;;;15.60;7.27;;;;;;;22.91;82.20;100408.89;717715;1200;114535;-78
2021/09/03 10:42:12;;;;;;;12.67;7.57;;;;;;;22.89;78.17;100420.84;717860;1203;113871;-78
2021/09/03 10:57:20;;;;;;;14.03;6.90;;;;;;;21.83;76.91;100420.89;716477;1199;115411;-79
2021/09/03 11:12:23;;;;;;;16.70;7.98;;;;;;;21.32;80.32;100419.59;716314;1199;114575;-79
2021/09/03 11:27:27;;;;;;;16.70;11.07;;;;;;;21.49;81.68;100408.54;716523;1177;114769;-79
2021/09/03 11:42:32;;;;;;;10.30;6.50;;;;;;;21.63;81.29;100399.55;716492;1199;114619;-79
2021/09/03 11:58:05;;;;;;;10.63;6.40;;;;;;;21.36;82.72;100396.00;716325;1174;113544;-77
2021/09/03 12:13:40;;;;;;;9.87;7.97;;;;;;;21.23;84.31;100394.13;715931;1185;115033;-77
2021/09/03 12:28:47;;;;;;;11.75;7.58;;;;;;;21.52;84.13;100381.44;715822;1200;114764;-77
2021/09/03 12:43:53;;;;;;;14.53;9.13;;;;;;;21.03;84.26;100386.91;716091;1200;114116;-76
2021/09/03 12:58:56;;;;;;;13.00;6.88;;;;;;;20.84;87.23;100391.18;716001;1202;114784;-76
2021/09/03 13:13:59;;;;;;;14.35;7.08;;;;;;;20.61;85.73;100407.45;715943;1200;114737;-74
2021/09/03 13:29:05;;;;;;;14.88;7.90;;;;;;;21.62;82.09;100389.89;715471;1177;113677;-75
2021/09/03 13:44:07;;;;;;;25.73;10.70;;;;;;;21.16;80.68;100379.98;716008;1200;114361;-75
2021/09/03 13:59:12;;;;;;;13.83;8.18;;;;;;;20.99;80.37;100376.86;715840;1178;114250;-78
2021/09/03 14:14:15;;;;;;;15.83;8.73;;;;;;;22.60;72.66;100394.42;715979;1202;113923;-78
2021/09/03 14:29:18;;;;;;;13.10;7.75;;;;;;;20.58;77.81;100402.53;716498;1178;113374;-78
2021/09/03 14:44:20;;;;;;;19.60;11.73;;;;;;;20.27;82.28;100401.13;716347;1177;114702;-77
2021/09/03 14:59:23;;;;;;;28.15;20.35;;;;;;;29.30;68.75;100389.82;716557;1205;114385;-78
2021/09/03 15:14:26;;;;;;;15.13;9.75;;;;;;;26.87;63.73;100390.27;716007;1202;115431;-76
2021/09/03 15:29:28;;;;;;;12.70;7.40;;;;;;;23.13;69.19;100381.80;716069;1200;114799;-75
2021/09/03 15:44:31;;;;;;;46.13;29.48;;;;;;;20.61;76.78;100378.98;716017;1199;115334;-79
2021/09/03 15:59:34;;;;;;;23.63;13.58;;;;;;;21.54;77.44;100368.75;716139;1200;113572;-75
2021/09/03 16:14:36;;;;;;;16.93;10.43;;;;;;;20.52;78.84;100366.02;716158;1177;114246;-81
2021/09/03 16:29:39;;;;;;;16.00;8.67;;;;;;;20.44;80.63;100367.00;716838;1200;113956;-78
2021/09/03 16:44:44;;;;;;;29.28;14.18;;;;;;;19.62;84.72;100385.30;715854;1176;114660;-75
2021/09/03 16:59:47;;;;;;;35.25;19.33;;;;;;;19.00;88.62;100394.75;715985;1200;114283;-76
2021/09/03 17:14:49;;;;;;;20.98;10.95;;;;;;;18.61;91.26;100418.80;715942;1177;113855;-75
2021/09/03 17:29:52;;;;;;;19.65;9.70;;;;;;;17.99;92.64;100425.28;716607;1205;114707;-76
2021/09/03 17:44:55;;;;;;;17.70;10.25;;;;;;;17.43;94.11;100444.09;716642;1200;115576;-76
2021/09/03 17:59:57;;;;;;;40.68;18.13;;;;;;;17.09;95.89;100462.04;716782;1176;113562;-76
2021/09/03 18:15:02;;;;;;;48.40;23.20;;;;;;;16.69;97.84;100466.47;716524;1190;113804;-75
2021/09/03 18:30:08;;;;;;;20.23;11.43;;;;;;;16.53;99.20;100469.19;716399;1200;114571;-75
2021/09/03 18:45:12;;;;;;;21.03;11.40;;;;;;;16.19;99.50;100494.05;716542;1199;114149;-75
2021/09/03 19:00:16;;;;;;;33.38;16.25;;;;;;;15.80;100.00;100495.52;716289;1199;114651;-74
2021/09/03 19:15:19;;;;;;;16.40;9.08;;;;;;;15.45;100.00;100503.58;716281;1203;114781;-75
2021/09/03 19:30:22;;;;;;;34.88;16.65;;;;;;;15.23;100.00;100512.08;716224;1197;114032;-75
2021/09/03 19:45:25;;;;;;;12.78;6.68;;;;;;;14.82;100.00;100523.33;715700;1202;115839;-73
2021/09/03 20:00:27;;;;;;;14.40;6.68;;;;;;;14.59;100.00;100521.16;715751;1177;113996;-74
2021/09/03 20:15:30;;;;;;;22.15;9.20;;;;;;;14.40;100.00;100529.31;715705;1177;114120;-75
2021/09/03 20:30:33;;;;;;;30.13;15.13;;;;;;;14.19;100.00;100541.02;715754;1203;114124;-75
2021/09/03 20:45:36;;;;;;;20.20;11.07;;;;;;;13.88;100.00;100551.94;715920;1177;114797;-75
2021/09/03 21:00:40;;;;;;;29.63;15.40;;;;;;;13.55;100.00;100566.60;716007;1200;114500;-75
2021/09/03 21:15:43;;;;;;;22.65;11.63;;;;;;;13.21;100.00;100578.54;715925;1176;114370;-74
2021/09/03 21:30:45;;;;;;;18.58;9.28;;;;;;;12.87;100.00;100583.52;715603;1200;114804;-74
2021/09/03 21:45:48;;;;;;;26.07;13.97;;;;;;;12.60;100.00;100596.45;715801;1202;114657;-74
2021/09/03 22:00:50;;;;;;;18.70;8.85;;;;;;;12.38;100.00;100592.31;715792;1192;114411;-74
2021/09/03 22:15:54;;;;;;;13.90;6.85;;;;;;;12.14;100.00;100601.45;716035;1205;114819;-74
2021/09/03 22:30:57;;;;;;;28.15;11.80;;;;;;;12.05;100.00;100618.05;715775;1200;115648;-74
2021/09/03 22:45:59;;;;;;;17.25;7.60;;;;;;;11.98;100.00;100625.66;715662;1205;114666;-74
2021/09/03 23:01:02;;;;;;;13.10;7.03;;;;;;;11.86;100.00;100613.55;715738;1194;114756;-74
2021/09/03 23:16:05;;;;;;;11.70;6.63;;;;;;;11.66;100.00;100623.19;715604;1199;114163;-74
2021/09/03 23:31:07;;;;;;;14.55;6.53;;;;;;;11.54;100.00;100629.52;715507;1174;115137;-74
2021/09/03 23:46:09;;;;;;;11.80;6.25;;;;;;;11.36;100.00;100632.75;715800;1200;114264;-74
